This is the latest recevied weather packets stored in our database for station/object EA4BCR. If no packets are shown the sender has not sent any weather packets the latest 10 day(s).
| Time | Temp. | Humidity | Pressure | Rain* | Wind** | Luminosity | Snow |
|---|---|---|---|---|---|---|---|
| 1777574211 | 22.22° C | 32% | 1012.6 hPa | - | - | - | - |
| 1777573611 | 22.78° C | 32% | 1012.4 hPa | - | - | - | - |
| 1777573011 | 22.78° C | 31% | 1012.3 hPa | - | - | - | - |
| 1777572411 | 23.33° C | 33% | 1012.2 hPa | - | - | - | - |
| 1777571811 | 22.78° C | 33% | 1012.2 hPa | - | - | - | - |
| 1777571211 | 23.33° C | 33% | 1011.9 hPa | - | - | - | - |
| 1777570611 | 23.33° C | 32% | 1012 hPa | - | - | - | - |
| 1777570011 | 22.78° C | 33% | 1012.2 hPa | - | - | - | - |
| 1777569411 | 23.89° C | 31% | 1011.7 hPa | - | - | - | - |
| 1777568811 | 23.33° C | 31% | 1012 hPa | - | - | - | - |
| 1777568211 | 23.89° C | 31% | 1011.7 hPa | - | - | - | - |
| 1777567611 | 22.22° C | 33% | 1012.2 hPa | - | - | - | - |
| 1777567011 | 22.78° C | 32% | 1012.3 hPa | - | - | - | - |
| 1777566411 | 23.33° C | 33% | 1012.1 hPa | - | - | - | - |
| 1777565811 | 24.44° C | 32% | 1011.7 hPa | - | - | - | - |
| 1777565211 | 24.44° C | 32% | 1011.9 hPa | - | - | - | - |
| 1777564611 | 23.33° C | 33% | 1012.1 hPa | - | - | - | - |
| 1777564011 | 22.78° C | 34% | 1012.3 hPa | - | - | - | - |
| 1777563411 | 23.89° C | 32% | 1011.9 hPa | - | - | - | - |
| 1777562811 | 24.44° C | 31% | 1011.8 hPa | - | - | - | - |
| 1777562211 | 23.89° C | 33% | 1012 hPa | - | - | - | - |
| 1777561611 | 24.44° C | 31% | 1011.7 hPa | - | - | - | - |
| 1777561011 | 22.78° C | 37% | 1012.4 hPa | - | - | - | - |
| 1777560411 | 24.44° C | 32% | 1011.9 hPa | - | - | - | - |
| 1777559811 | 23.89° C | 35% | 1012 hPa | - | - | - | - |
* Rain since midnight (hover to see other rain measurements)
** Current wind speed in m/s (hover to see current wind gust speed)